sensor_id;sensor_type;location;lat;lon;timestamp;P1;durP1;ratioP1;P2;durP2;ratioP2
55692;SDS011;41590;53.366;5.212;2022-07-22T00:00:19;8.27;;;1.98;;
55692;SDS011;41590;53.366;5.212;2022-07-22T00:02:46;8.40;;;2.22;;
55692;SDS011;41590;53.366;5.212;2022-07-22T00:05:21;10.05;;;2.08;;
55692;SDS011;41590;53.366;5.212;2022-07-22T00:11:41;5.63;;;1.40;;
55692;SDS011;41590;53.366;5.212;2022-07-22T00:14:11;11.90;;;1.60;;
55692;SDS011;41590;53.366;5.212;2022-07-22T00:16:38;10.80;;;1.50;;
55692;SDS011;41590;53.366;5.212;2022-07-22T00:19:04;15.43;;;1.95;;
55692;SDS011;41590;53.366;5.212;2022-07-22T00:21:29;10.23;;;1.38;;
55692;SDS011;41590;53.366;5.212;2022-07-22T00:23:55;13.88;;;1.75;;
55692;SDS011;41590;53.366;5.212;2022-07-22T00:26:21;7.60;;;1.55;;
55692;SDS011;41590;53.366;5.212;2022-07-22T00:28:48;9.98;;;1.77;;
55692;SDS011;41590;53.366;5.212;2022-07-22T00:31:15;9.27;;;1.40;;
55692;SDS011;41590;53.366;5.212;2022-07-22T00:33:41;8.90;;;1.65;;
55692;SDS011;41590;53.366;5.212;2022-07-22T00:36:16;9.27;;;1.60;;
55692;SDS011;41590;53.366;5.212;2022-07-22T00:38:42;6.18;;;1.75;;
55692;SDS011;41590;53.366;5.212;2022-07-22T00:41:08;5.25;;;1.30;;
55692;SDS011;41590;53.366;5.212;2022-07-22T00:46:27;6.38;;;1.35;;
55692;SDS011;41590;53.366;5.212;2022-07-22T00:48:55;7.80;;;1.50;;
55692;SDS011;41590;53.366;5.212;2022-07-22T00:51:22;8.68;;;1.40;;
55692;SDS011;41590;53.366;5.212;2022-07-22T00:53:51;7.18;;;1.35;;
55692;SDS011;41590;53.366;5.212;2022-07-22T00:56:18;10.75;;;1.60;;
55692;SDS011;41590;53.366;5.212;2022-07-22T00:59:04;10.85;;;1.60;;
55692;SDS011;41590;53.366;5.212;2022-07-22T01:01:37;6.00;;;1.58;;
55692;SDS011;41590;53.366;5.212;2022-07-22T01:06:54;9.30;;;1.75;;
55692;SDS011;41590;53.366;5.212;2022-07-22T01:09:23;6.93;;;1.42;;
55692;SDS011;41590;53.366;5.212;2022-07-22T01:11:49;4.25;;;1.67;;
55692;SDS011;41590;53.366;5.212;2022-07-22T01:14:15;7.22;;;1.30;;
55692;SDS011;41590;53.366;5.212;2022-07-22T01:16:58;5.25;;;1.13;;
55692;SDS011;41590;53.366;5.212;2022-07-22T01:19:23;6.25;;;1.30;;
55692;SDS011;41590;53.366;5.212;2022-07-22T01:24:42;6.15;;;1.85;;
55692;SDS011;41590;53.366;5.212;2022-07-22T01:27:07;6.40;;;1.13;;
55692;SDS011;41590;53.366;5.212;2022-07-22T01:29:33;7.63;;;1.10;;
55692;SDS011;41590;53.366;5.212;2022-07-22T01:31:59;3.55;;;1.10;;
55692;SDS011;41590;53.366;5.212;2022-07-22T01:34:26;7.07;;;1.40;;
55692;SDS011;41590;53.366;5.212;2022-07-22T01:36:52;5.88;;;1.08;;
55692;SDS011;41590;53.366;5.212;2022-07-22T01:39:20;4.78;;;1.23;;
55692;SDS011;41590;53.366;5.212;2022-07-22T01:44:16;7.88;;;1.23;;
55692;SDS011;41590;53.366;5.212;2022-07-22T01:49:11;8.90;;;1.58;;
55692;SDS011;41590;53.366;5.212;2022-07-22T01:51:39;6.95;;;1.40;;
55692;SDS011;41590;53.366;5.212;2022-07-22T01:54:05;6.50;;;2.03;;
55692;SDS011;41590;53.366;5.212;2022-07-22T01:56:31;7.43;;;1.27;;
55692;SDS011;41590;53.366;5.212;2022-07-22T01:58:56;5.03;;;1.55;;
55692;SDS011;41590;53.366;5.212;2022-07-22T02:01:23;8.85;;;1.63;;
55692;SDS011;41590;53.366;5.212;2022-07-22T02:03:49;8.05;;;1.52;;
55692;SDS011;41590;53.366;5.212;2022-07-22T02:06:16;6.10;;;1.50;;
55692;SDS011;41590;53.366;5.212;2022-07-22T02:08:42;13.30;;;2.00;;
55692;SDS011;41590;53.366;5.212;2022-07-22T02:11:08;7.47;;;1.70;;
55692;SDS011;41590;53.366;5.212;2022-07-22T02:13:34;6.70;;;1.80;;
55692;SDS011;41590;53.366;5.212;2022-07-22T02:16:04;6.55;;;1.35;;
55692;SDS011;41590;53.366;5.212;2022-07-22T02:18:29;9.50;;;1.60;;
55692;SDS011;41590;53.366;5.212;2022-07-22T02:20:56;8.35;;;1.35;;
55692;SDS011;41590;53.366;5.212;2022-07-22T02:23:37;14.02;;;1.70;;
55692;SDS011;41590;53.366;5.212;2022-07-22T02:26:03;5.60;;;1.42;;
55692;SDS011;41590;53.366;5.212;2022-07-22T02:28:29;8.55;;;1.88;;
55692;SDS011;41590;53.366;5.212;2022-07-22T02:31:05;9.57;;;2.08;;
55692;SDS011;41590;53.366;5.212;2022-07-22T02:33:31;14.52;;;1.75;;
55692;SDS011;41590;53.366;5.212;2022-07-22T02:35:57;16.30;;;2.03;;
55692;SDS011;41590;53.366;5.212;2022-07-22T02:38:24;10.13;;;1.67;;
55692;SDS011;41590;53.366;5.212;2022-07-22T02:40:49;9.43;;;1.38;;
55692;SDS011;41590;53.366;5.212;2022-07-22T02:43:21;6.18;;;1.42;;
55692;SDS011;41590;53.366;5.212;2022-07-22T02:45:47;8.45;;;1.80;;
55692;SDS011;41590;53.366;5.212;2022-07-22T02:48:15;12.45;;;2.10;;
55692;SDS011;41590;53.366;5.212;2022-07-22T02:50:47;8.13;;;1.85;;
55692;SDS011;41590;53.366;5.212;2022-07-22T02:53:23;11.43;;;1.67;;
55692;SDS011;41590;53.366;5.212;2022-07-22T02:55:49;9.68;;;1.45;;
55692;SDS011;41590;53.366;5.212;2022-07-22T02:58:17;4.60;;;1.27;;
55692;SDS011;41590;53.366;5.212;2022-07-22T03:00:43;8.35;;;1.80;;
55692;SDS011;41590;53.366;5.212;2022-07-22T03:03:09;6.47;;;1.55;;
55692;SDS011;41590;53.366;5.212;2022-07-22T03:05:34;6.32;;;1.23;;
55692;SDS011;41590;53.366;5.212;2022-07-22T03:08:00;4.43;;;1.25;;
55692;SDS011;41590;53.366;5.212;2022-07-22T03:10:27;5.22;;;1.00;;
55692;SDS011;41590;53.366;5.212;2022-07-22T03:12:53;12.32;;;1.30;;
55692;SDS011;41590;53.366;5.212;2022-07-22T03:15:22;5.55;;;1.13;;
55692;SDS011;41590;53.366;5.212;2022-07-22T03:17:53;7.60;;;1.25;;
55692;SDS011;41590;53.366;5.212;2022-07-22T03:20:21;7.53;;;1.40;;
55692;SDS011;41590;53.366;5.212;2022-07-22T03:22:47;7.35;;;1.10;;
55692;SDS011;41590;53.366;5.212;2022-07-22T03:25:12;7.30;;;1.33;;
55692;SDS011;41590;53.366;5.212;2022-07-22T03:27:38;7.55;;;1.42;;
55692;SDS011;41590;53.366;5.212;2022-07-22T03:30:04;12.90;;;1.40;;
55692;SDS011;41590;53.366;5.212;2022-07-22T03:32:32;8.52;;;1.55;;
55692;SDS011;41590;53.366;5.212;2022-07-22T03:35:06;4.15;;;1.10;;
55692;SDS011;41590;53.366;5.212;2022-07-22T03:37:31;7.65;;;1.10;;
55692;SDS011;41590;53.366;5.212;2022-07-22T03:39:57;10.18;;;1.60;;
55692;SDS011;41590;53.366;5.212;2022-07-22T03:42:23;5.80;;;1.65;;
55692;SDS011;41590;53.366;5.212;2022-07-22T03:44:51;5.93;;;1.50;;
55692;SDS011;41590;53.366;5.212;2022-07-22T03:49:50;6.75;;;1.20;;
55692;SDS011;41590;53.366;5.212;2022-07-22T03:52:16;3.67;;;1.00;;
55692;SDS011;41590;53.366;5.212;2022-07-22T03:54:42;5.55;;;1.05;;
55692;SDS011;41590;53.366;5.212;2022-07-22T03:57:15;4.50;;;1.17;;
55692;SDS011;41590;53.366;5.212;2022-07-22T03:59:41;7.47;;;1.15;;
55692;SDS011;41590;53.366;5.212;2022-07-22T04:02:08;3.63;;;1.00;;
55692;SDS011;41590;53.366;5.212;2022-07-22T04:04:34;10.40;;;1.40;;
55692;SDS011;41590;53.366;5.212;2022-07-22T04:07:00;8.52;;;1.40;;
55692;SDS011;41590;53.366;5.212;2022-07-22T04:09:32;6.20;;;1.27;;
55692;SDS011;41590;53.366;5.212;2022-07-22T04:14:28;4.90;;;1.13;;
55692;SDS011;41590;53.366;5.212;2022-07-22T04:16:56;7.38;;;1.70;;
55692;SDS011;41590;53.366;5.212;2022-07-22T04:19:27;3.88;;;0.90;;
55692;SDS011;41590;53.366;5.212;2022-07-22T04:21:53;6.03;;;1.10;;
55692;SDS011;41590;53.366;5.212;2022-07-22T04:24:22;2.33;;;0.65;;
55692;SDS011;41590;53.366;5.212;2022-07-22T04:26:48;5.10;;;0.90;;
55692;SDS011;41590;53.366;5.212;2022-07-22T04:29:15;5.55;;;0.80;;
55692;SDS011;41590;53.366;5.212;2022-07-22T04:31:44;6.03;;;0.98;;
55692;SDS011;41590;53.366;5.212;2022-07-22T04:34:10;5.35;;;1.00;;
55692;SDS011;41590;53.366;5.212;2022-07-22T04:36:36;6.28;;;1.00;;
55692;SDS011;41590;53.366;5.212;2022-07-22T04:39:03;8.23;;;1.58;;
55692;SDS011;41590;53.366;5.212;2022-07-22T04:41:31;5.60;;;1.40;;
55692;SDS011;41590;53.366;5.212;2022-07-22T04:43:59;8.80;;;1.20;;
55692;SDS011;41590;53.366;5.212;2022-07-22T04:46:24;7.18;;;1.25;;
55692;SDS011;41590;53.366;5.212;2022-07-22T04:48:50;7.38;;;1.10;;
55692;SDS011;41590;53.366;5.212;2022-07-22T04:51:18;4.88;;;1.20;;
55692;SDS011;41590;53.366;5.212;2022-07-22T04:56:16;8.77;;;1.23;;
55692;SDS011;41590;53.366;5.212;2022-07-22T04:58:44;5.00;;;1.02;;
55692;SDS011;41590;53.366;5.212;2022-07-22T05:01:10;6.97;;;1.10;;
55692;SDS011;41590;53.366;5.212;2022-07-22T05:03:39;6.03;;;1.05;;
55692;SDS011;41590;53.366;5.212;2022-07-22T05:06:06;7.40;;;1.25;;
55692;SDS011;41590;53.366;5.212;2022-07-22T05:08:33;4.05;;;1.10;;
55692;SDS011;41590;53.366;5.212;2022-07-22T05:10:59;5.10;;;1.00;;
55692;SDS011;41590;53.366;5.212;2022-07-22T05:13:27;4.53;;;0.93;;
55692;SDS011;41590;53.366;5.212;2022-07-22T05:15:54;4.22;;;0.63;;
55692;SDS011;41590;53.366;5.212;2022-07-22T05:18:20;8.35;;;0.90;;
55692;SDS011;41590;53.366;5.212;2022-07-22T05:20:46;6.05;;;1.23;;
55692;SDS011;41590;53.366;5.212;2022-07-22T05:23:12;3.83;;;1.00;;
55692;SDS011;41590;53.366;5.212;2022-07-22T05:25:38;5.45;;;1.08;;
55692;SDS011;41590;53.366;5.212;2022-07-22T05:28:05;4.03;;;0.60;;
55692;SDS011;41590;53.366;5.212;2022-07-22T05:30:31;4.97;;;0.73;;
55692;SDS011;41590;53.366;5.212;2022-07-22T05:32:56;5.00;;;0.77;;
55692;SDS011;41590;53.366;5.212;2022-07-22T05:35:22;4.05;;;0.70;;
55692;SDS011;41590;53.366;5.212;2022-07-22T05:37:49;10.63;;;0.80;;
55692;SDS011;41590;53.366;5.212;2022-07-22T05:40:17;12.88;;;0.85;;
55692;SDS011;41590;53.366;5.212;2022-07-22T05:42:42;3.15;;;0.90;;
55692;SDS011;41590;53.366;5.212;2022-07-22T05:45:08;7.05;;;0.60;;
55692;SDS011;41590;53.366;5.212;2022-07-22T05:47:39;3.08;;;0.80;;
55692;SDS011;41590;53.366;5.212;2022-07-22T05:52:36;4.03;;;0.75;;
55692;SDS011;41590;53.366;5.212;2022-07-22T05:55:03;7.53;;;0.85;;
55692;SDS011;41590;53.366;5.212;2022-07-22T05:57:39;3.75;;;0.80;;
55692;SDS011;41590;53.366;5.212;2022-07-22T06:02:36;3.38;;;0.70;;
55692;SDS011;41590;53.366;5.212;2022-07-22T06:05:03;5.40;;;0.70;;
55692;SDS011;41590;53.366;5.212;2022-07-22T06:07:31;4.78;;;0.68;;
55692;SDS011;41590;53.366;5.212;2022-07-22T06:12:26;3.50;;;0.77;;
55692;SDS011;41590;53.366;5.212;2022-07-22T06:14:52;4.72;;;0.93;;
55692;SDS011;41590;53.366;5.212;2022-07-22T06:17:18;6.07;;;0.90;;
55692;SDS011;41590;53.366;5.212;2022-07-22T06:19:43;5.32;;;0.77;;
55692;SDS011;41590;53.366;5.212;2022-07-22T06:22:09;6.05;;;0.80;;
55692;SDS011;41590;53.366;5.212;2022-07-22T06:24:35;3.85;;;0.73;;
55692;SDS011;41590;53.366;5.212;2022-07-22T06:27:01;11.73;;;0.95;;
55692;SDS011;41590;53.366;5.212;2022-07-22T06:29:27;5.53;;;0.90;;
55692;SDS011;41590;53.366;5.212;2022-07-22T06:31:53;5.78;;;1.13;;
55692;SDS011;41590;53.366;5.212;2022-07-22T06:34:23;5.03;;;0.98;;
55692;SDS011;41590;53.366;5.212;2022-07-22T06:36:49;5.07;;;0.95;;
55692;SDS011;41590;53.366;5.212;2022-07-22T06:39:15;3.30;;;0.60;;
55692;SDS011;41590;53.366;5.212;2022-07-22T06:41:41;6.03;;;0.77;;
55692;SDS011;41590;53.366;5.212;2022-07-22T06:44:07;9.60;;;0.75;;
55692;SDS011;41590;53.366;5.212;2022-07-22T06:46:40;2.17;;;0.50;;
55692;SDS011;41590;53.366;5.212;2022-07-22T07:02:48;7.13;;;1.10;;
55692;SDS011;41590;53.366;5.212;2022-07-22T07:05:15;6.22;;;1.10;;
55692;SDS011;41590;53.366;5.212;2022-07-22T07:10:55;7.70;;;0.82;;
55692;SDS011;41590;53.366;5.212;2022-07-22T07:13:27;4.35;;;1.17;;
55692;SDS011;41590;53.366;5.212;2022-07-22T07:15:52;4.22;;;0.93;;
55692;SDS011;41590;53.366;5.212;2022-07-22T07:18:20;3.78;;;0.93;;
55692;SDS011;41590;53.366;5.212;2022-07-22T07:20:54;5.53;;;0.70;;
55692;SDS011;41590;53.366;5.212;2022-07-22T07:23:34;4.18;;;0.98;;
55692;SDS011;41590;53.366;5.212;2022-07-22T07:28:55;4.32;;;1.00;;
55692;SDS011;41590;53.366;5.212;2022-07-22T07:34:15;2.60;;;0.70;;
55692;SDS011;41590;53.366;5.212;2022-07-22T07:39:17;4.93;;;0.82;;
55692;SDS011;41590;53.366;5.212;2022-07-22T07:41:43;2.85;;;0.70;;
55692;SDS011;41590;53.366;5.212;2022-07-22T07:44:12;5.78;;;1.20;;
55692;SDS011;41590;53.366;5.212;2022-07-22T07:49:37;8.30;;;0.80;;
55692;SDS011;41590;53.366;5.212;2022-07-22T07:52:03;3.92;;;0.85;;
55692;SDS011;41590;53.366;5.212;2022-07-22T07:54:45;6.03;;;0.70;;
55692;SDS011;41590;53.366;5.212;2022-07-22T07:57:25;2.45;;;0.70;;
55692;SDS011;41590;53.366;5.212;2022-07-22T08:05:24;5.20;;;0.73;;
55692;SDS011;41590;53.366;5.212;2022-07-22T08:10:41;5.07;;;1.15;;
55692;SDS011;41590;53.366;5.212;2022-07-22T08:13:08;3.72;;;0.75;;
55692;SDS011;41590;53.366;5.212;2022-07-22T08:15:51;4.57;;;1.40;;
55692;SDS011;41590;53.366;5.212;2022-07-22T08:24:13;4.32;;;0.98;;
55692;SDS011;41590;53.366;5.212;2022-07-22T08:26:42;3.58;;;0.77;;
55692;SDS011;41590;53.366;5.212;2022-07-22T08:29:26;2.30;;;0.77;;
55692;SDS011;41590;53.366;5.212;2022-07-22T08:32:01;3.63;;;0.80;;
55692;SDS011;41590;53.366;5.212;2022-07-22T08:36:57;3.05;;;0.80;;
55692;SDS011;41590;53.366;5.212;2022-07-22T08:39:23;2.85;;;0.68;;
55692;SDS011;41590;53.366;5.212;2022-07-22T08:41:48;3.63;;;0.68;;
55692;SDS011;41590;53.366;5.212;2022-07-22T08:44:15;6.45;;;0.68;;
55692;SDS011;41590;53.366;5.212;2022-07-22T08:46:43;6.97;;;0.80;;
55692;SDS011;41590;53.366;5.212;2022-07-22T08:49:15;6.40;;;1.00;;
55692;SDS011;41590;53.366;5.212;2022-07-22T08:51:42;6.65;;;0.95;;
55692;SDS011;41590;53.366;5.212;2022-07-22T08:54:24;2.33;;;0.55;;
55692;SDS011;41590;53.366;5.212;2022-07-22T09:03:21;4.82;;;0.90;;
55692;SDS011;41590;53.366;5.212;2022-07-22T09:05:52;3.70;;;0.80;;
55692;SDS011;41590;53.366;5.212;2022-07-22T09:11:36;3.25;;;0.85;;
55692;SDS011;41590;53.366;5.212;2022-07-22T09:19:43;1.83;;;0.80;;
55692;SDS011;41590;53.366;5.212;2022-07-22T09:24:45;3.25;;;0.90;;
55692;SDS011;41590;53.366;5.212;2022-07-22T09:27:45;1.92;;;0.65;;
55692;SDS011;41590;53.366;5.212;2022-07-22T09:32:40;2.95;;;0.52;;
55692;SDS011;41590;53.366;5.212;2022-07-22T09:35:07;4.60;;;1.00;;
55692;SDS011;41590;53.366;5.212;2022-07-22T09:37:54;3.42;;;0.70;;
55692;SDS011;41590;53.366;5.212;2022-07-22T09:40:26;5.80;;;1.20;;
55692;SDS011;41590;53.366;5.212;2022-07-22T09:42:59;7.53;;;1.05;;
55692;SDS011;41590;53.366;5.212;2022-07-22T09:45:26;4.80;;;0.75;;
55692;SDS011;41590;53.366;5.212;2022-07-22T09:47:54;2.00;;;0.70;;
55692;SDS011;41590;53.366;5.212;2022-07-22T09:50:27;6.55;;;0.90;;
55692;SDS011;41590;53.366;5.212;2022-07-22T09:52:56;5.88;;;0.95;;
55692;SDS011;41590;53.366;5.212;2022-07-22T09:58:04;5.93;;;1.08;;
55692;SDS011;41590;53.366;5.212;2022-07-22T10:00:40;5.47;;;0.82;;
55692;SDS011;41590;53.366;5.212;2022-07-22T10:03:12;4.90;;;0.70;;
55692;SDS011;41590;53.366;5.212;2022-07-22T10:08:48;3.65;;;0.70;;
55692;SDS011;41590;53.366;5.212;2022-07-22T10:16:43;5.25;;;1.00;;
55692;SDS011;41590;53.366;5.212;2022-07-22T10:19:13;3.70;;;0.70;;
55692;SDS011;41590;53.366;5.212;2022-07-22T10:25:09;4.20;;;0.80;;
55692;SDS011;41590;53.366;5.212;2022-07-22T10:30:37;5.32;;;0.80;;
55692;SDS011;41590;53.366;5.212;2022-07-22T10:33:28;2.70;;;0.52;;
55692;SDS011;41590;53.366;5.212;2022-07-22T10:41:43;4.28;;;0.75;;
55692;SDS011;41590;53.366;5.212;2022-07-22T10:58:50;4.57;;;0.95;;
55692;SDS011;41590;53.366;5.212;2022-07-22T11:01:29;3.55;;;0.95;;
55692;SDS011;41590;53.366;5.212;2022-07-22T11:06:42;8.93;;;0.90;;
55692;SDS011;41590;53.366;5.212;2022-07-22T11:12:30;4.85;;;0.73;;
55692;SDS011;41590;53.366;5.212;2022-07-22T11:22:59;4.68;;;0.70;;
55692;SDS011;41590;53.366;5.212;2022-07-22T11:25:26;3.63;;;0.63;;
55692;SDS011;41590;53.366;5.212;2022-07-22T11:28:02;1.33;;;0.47;;
55692;SDS011;41590;53.366;5.212;2022-07-22T11:30:29;4.75;;;0.65;;
55692;SDS011;41590;53.366;5.212;2022-07-22T11:33:01;5.53;;;1.42;;
55692;SDS011;41590;53.366;5.212;2022-07-22T11:35:59;2.42;;;0.88;;
55692;SDS011;41590;53.366;5.212;2022-07-22T11:38:44;2.53;;;0.50;;
55692;SDS011;41590;53.366;5.212;2022-07-22T11:41:18;1.27;;;0.40;;
55692;SDS011;41590;53.366;5.212;2022-07-22T11:43:45;1.38;;;0.40;;
55692;SDS011;41590;53.366;5.212;2022-07-22T11:46:16;2.42;;;0.47;;
55692;SDS011;41590;53.366;5.212;2022-07-22T11:48:44;2.22;;;0.55;;
55692;SDS011;41590;53.366;5.212;2022-07-22T11:53:59;5.60;;;0.70;;
55692;SDS011;41590;53.366;5.212;2022-07-22T11:56:27;3.28;;;0.55;;
55692;SDS011;41590;53.366;5.212;2022-07-22T11:58:54;4.38;;;0.60;;
55692;SDS011;41590;53.366;5.212;2022-07-22T12:01:22;2.58;;;0.63;;
55692;SDS011;41590;53.366;5.212;2022-07-22T12:03:51;3.47;;;0.75;;
55692;SDS011;41590;53.366;5.212;2022-07-22T12:06:23;3.92;;;0.60;;
55692;SDS011;41590;53.366;5.212;2022-07-22T12:11:34;1.50;;;0.52;;
55692;SDS011;41590;53.366;5.212;2022-07-22T12:14:21;4.78;;;0.77;;
55692;SDS011;41590;53.366;5.212;2022-07-22T12:22:21;3.05;;;0.85;;
55692;SDS011;41590;53.366;5.212;2022-07-22T12:24:58;5.18;;;0.68;;
55692;SDS011;41590;53.366;5.212;2022-07-22T12:27:58;2.45;;;0.60;;
55692;SDS011;41590;53.366;5.212;2022-07-22T12:30:31;2.55;;;0.50;;
55692;SDS011;41590;53.366;5.212;2022-07-22T12:42:33;2.58;;;0.55;;
55692;SDS011;41590;53.366;5.212;2022-07-22T12:53:48;2.90;;;0.57;;
55692;SDS011;41590;53.366;5.212;2022-07-22T12:56:19;3.30;;;0.68;;
55692;SDS011;41590;53.366;5.212;2022-07-22T12:58:45;2.58;;;0.40;;
55692;SDS011;41590;53.366;5.212;2022-07-22T13:01:13;5.15;;;0.77;;
55692;SDS011;41590;53.366;5.212;2022-07-22T13:03:39;4.05;;;0.75;;
55692;SDS011;41590;53.366;5.212;2022-07-22T13:08:55;2.45;;;0.50;;
55692;SDS011;41590;53.366;5.212;2022-07-22T13:11:33;2.85;;;0.52;;
55692;SDS011;41590;53.366;5.212;2022-07-22T13:14:05;5.07;;;0.95;;
55692;SDS011;41590;53.366;5.212;2022-07-22T13:19:08;2.83;;;0.50;;
55692;SDS011;41590;53.366;5.212;2022-07-22T13:21:49;1.30;;;0.38;;
55692;SDS011;41590;53.366;5.212;2022-07-22T13:24:30;2.88;;;0.70;;
55692;SDS011;41590;53.366;5.212;2022-07-22T13:27:07;2.63;;;0.40;;
55692;SDS011;41590;53.366;5.212;2022-07-22T13:32:04;1.98;;;0.40;;
55692;SDS011;41590;53.366;5.212;2022-07-22T13:34:43;2.75;;;0.45;;
55692;SDS011;41590;53.366;5.212;2022-07-22T13:37:22;2.60;;;0.50;;
55692;SDS011;41590;53.366;5.212;2022-07-22T13:39:51;5.10;;;1.25;;
55692;SDS011;41590;53.366;5.212;2022-07-22T13:42:17;4.63;;;0.90;;
55692;SDS011;41590;53.366;5.212;2022-07-22T13:50:29;5.20;;;0.88;;
55692;SDS011;41590;53.366;5.212;2022-07-22T13:52:58;3.95;;;0.63;;
55692;SDS011;41590;53.366;5.212;2022-07-22T13:55:25;5.47;;;0.68;;
55692;SDS011;41590;53.366;5.212;2022-07-22T13:58:10;2.50;;;0.57;;
55692;SDS011;41590;53.366;5.212;2022-07-22T14:00:47;2.03;;;0.75;;
55692;SDS011;41590;53.366;5.212;2022-07-22T14:06:30;2.97;;;0.70;;
55692;SDS011;41590;53.366;5.212;2022-07-22T14:08:57;3.97;;;0.50;;
55692;SDS011;41590;53.366;5.212;2022-07-22T14:19:29;2.25;;;0.82;;
55692;SDS011;41590;53.366;5.212;2022-07-22T14:25:11;3.65;;;0.60;;
55692;SDS011;41590;53.366;5.212;2022-07-22T14:27:37;2.33;;;0.47;;
55692;SDS011;41590;53.366;5.212;2022-07-22T14:33:15;6.10;;;0.95;;
55692;SDS011;41590;53.366;5.212;2022-07-22T14:35:41;2.78;;;0.50;;
55692;SDS011;41590;53.366;5.212;2022-07-22T14:38:22;3.13;;;0.70;;
55692;SDS011;41590;53.366;5.212;2022-07-22T14:40:54;3.03;;;0.47;;
55692;SDS011;41590;53.366;5.212;2022-07-22T14:43:26;3.08;;;0.60;;
55692;SDS011;41590;53.366;5.212;2022-07-22T14:45:53;4.47;;;0.57;;
55692;SDS011;41590;53.366;5.212;2022-07-22T14:50:56;5.35;;;1.02;;
55692;SDS011;41590;53.366;5.212;2022-07-22T14:56:11;2.15;;;0.50;;
55692;SDS011;41590;53.366;5.212;2022-07-22T14:58:49;2.15;;;0.50;;
55692;SDS011;41590;53.366;5.212;2022-07-22T15:01:15;1.90;;;0.40;;
55692;SDS011;41590;53.366;5.212;2022-07-22T15:06:17;4.32;;;0.80;;
55692;SDS011;41590;53.366;5.212;2022-07-22T15:08:56;3.80;;;0.75;;
55692;SDS011;41590;53.366;5.212;2022-07-22T15:11:22;1.67;;;0.55;;
55692;SDS011;41590;53.366;5.212;2022-07-22T15:13:48;5.20;;;2.92;;
55692;SDS011;41590;53.366;5.212;2022-07-22T15:16:14;6.90;;;1.02;;
55692;SDS011;41590;53.366;5.212;2022-07-22T15:18:40;2.03;;;0.80;;
55692;SDS011;41590;53.366;5.212;2022-07-22T15:21:06;2.35;;;0.60;;
55692;SDS011;41590;53.366;5.212;2022-07-22T15:23:32;3.15;;;0.50;;
55692;SDS011;41590;53.366;5.212;2022-07-22T15:25:59;2.85;;;0.52;;
55692;SDS011;41590;53.366;5.212;2022-07-22T15:28:26;3.95;;;1.23;;
55692;SDS011;41590;53.366;5.212;2022-07-22T15:33:36;2.30;;;0.60;;
55692;SDS011;41590;53.366;5.212;2022-07-22T15:36:05;2.22;;;0.60;;
55692;SDS011;41590;53.366;5.212;2022-07-22T15:38:34;2.40;;;0.57;;
55692;SDS011;41590;53.366;5.212;2022-07-22T15:43:35;3.53;;;0.75;;
55692;SDS011;41590;53.366;5.212;2022-07-22T15:46:01;2.75;;;0.50;;
55692;SDS011;41590;53.366;5.212;2022-07-22T15:48:31;5.13;;;0.70;;
55692;SDS011;41590;53.366;5.212;2022-07-22T15:50:58;2.15;;;0.50;;
55692;SDS011;41590;53.366;5.212;2022-07-22T15:53:29;3.55;;;0.93;;
55692;SDS011;41590;53.366;5.212;2022-07-22T16:06:42;2.88;;;0.60;;
55692;SDS011;41590;53.366;5.212;2022-07-22T16:09:12;2.83;;;0.80;;
55692;SDS011;41590;53.366;5.212;2022-07-22T16:11:54;1.80;;;0.50;;
55692;SDS011;41590;53.366;5.212;2022-07-22T16:14:23;4.15;;;0.80;;
55692;SDS011;41590;53.366;5.212;2022-07-22T16:16:51;4.28;;;1.00;;
55692;SDS011;41590;53.366;5.212;2022-07-22T16:19:21;2.70;;;0.70;;
55692;SDS011;41590;53.366;5.212;2022-07-22T16:21:54;4.85;;;0.90;;
55692;SDS011;41590;53.366;5.212;2022-07-22T16:24:35;2.90;;;0.95;;
55692;SDS011;41590;53.366;5.212;2022-07-22T16:27:07;2.75;;;0.88;;
55692;SDS011;41590;53.366;5.212;2022-07-22T16:29:32;5.55;;;0.70;;
55692;SDS011;41590;53.366;5.212;2022-07-22T16:32:07;3.40;;;0.70;;
55692;SDS011;41590;53.366;5.212;2022-07-22T16:37:28;2.50;;;0.80;;
55692;SDS011;41590;53.366;5.212;2022-07-22T16:39:53;1.77;;;0.80;;
55692;SDS011;41590;53.366;5.212;2022-07-22T16:42:20;4.25;;;0.70;;
55692;SDS011;41590;53.366;5.212;2022-07-22T16:49:57;2.10;;;0.70;;
55692;SDS011;41590;53.366;5.212;2022-07-22T16:52:38;3.20;;;0.70;;
55692;SDS011;41590;53.366;5.212;2022-07-22T16:57:52;6.05;;;1.25;;
55692;SDS011;41590;53.366;5.212;2022-07-22T17:00:24;8.65;;;1.00;;
55692;SDS011;41590;53.366;5.212;2022-07-22T17:02:51;2.72;;;1.10;;
55692;SDS011;41590;53.366;5.212;2022-07-22T17:08:09;4.43;;;0.70;;
55692;SDS011;41590;53.366;5.212;2022-07-22T17:10:36;2.22;;;0.60;;
55692;SDS011;41590;53.366;5.212;2022-07-22T17:13:02;6.70;;;0.90;;
55692;SDS011;41590;53.366;5.212;2022-07-22T17:15:31;6.20;;;0.93;;
55692;SDS011;41590;53.366;5.212;2022-07-22T17:17:57;4.38;;;0.95;;
55692;SDS011;41590;53.366;5.212;2022-07-22T17:20:27;3.67;;;1.13;;
55692;SDS011;41590;53.366;5.212;2022-07-22T17:22:53;4.05;;;1.17;;
55692;SDS011;41590;53.366;5.212;2022-07-22T17:25:37;2.83;;;0.98;;
55692;SDS011;41590;53.366;5.212;2022-07-22T17:28:20;2.97;;;0.70;;
55692;SDS011;41590;53.366;5.212;2022-07-22T17:33:25;2.83;;;1.08;;
55692;SDS011;41590;53.366;5.212;2022-07-22T17:35:56;4.05;;;0.95;;
55692;SDS011;41590;53.366;5.212;2022-07-22T17:38:30;3.53;;;0.80;;
55692;SDS011;41590;53.366;5.212;2022-07-22T17:40:56;7.55;;;1.15;;
55692;SDS011;41590;53.366;5.212;2022-07-22T17:46:12;3.70;;;0.80;;
55692;SDS011;41590;53.366;5.212;2022-07-22T17:48:39;2.63;;;0.70;;
55692;SDS011;41590;53.366;5.212;2022-07-22T17:51:07;6.30;;;0.80;;
55692;SDS011;41590;53.366;5.212;2022-07-22T17:53:33;4.03;;;0.70;;
55692;SDS011;41590;53.366;5.212;2022-07-22T17:56:00;4.95;;;1.10;;
55692;SDS011;41590;53.366;5.212;2022-07-22T18:01:22;2.70;;;0.82;;
55692;SDS011;41590;53.366;5.212;2022-07-22T18:03:48;3.15;;;0.80;;
55692;SDS011;41590;53.366;5.212;2022-07-22T18:12:46;3.03;;;1.02;;
55692;SDS011;41590;53.366;5.212;2022-07-22T18:17:44;4.80;;;0.90;;
55692;SDS011;41590;53.366;5.212;2022-07-22T18:20:10;3.28;;;1.00;;
55692;SDS011;41590;53.366;5.212;2022-07-22T18:22:38;2.90;;;0.80;;
55692;SDS011;41590;53.366;5.212;2022-07-22T18:25:05;4.32;;;0.85;;
55692;SDS011;41590;53.366;5.212;2022-07-22T18:27:35;3.67;;;0.82;;
55692;SDS011;41590;53.366;5.212;2022-07-22T18:30:02;8.38;;;0.70;;
55692;SDS011;41590;53.366;5.212;2022-07-22T18:32:29;4.72;;;1.25;;
55692;SDS011;41590;53.366;5.212;2022-07-22T18:34:57;6.72;;;0.77;;
55692;SDS011;41590;53.366;5.212;2022-07-22T18:37:23;2.67;;;1.05;;
55692;SDS011;41590;53.366;5.212;2022-07-22T18:39:51;2.90;;;0.70;;
55692;SDS011;41590;53.366;5.212;2022-07-22T18:42:17;2.53;;;0.80;;
55692;SDS011;41590;53.366;5.212;2022-07-22T18:44:44;5.63;;;1.00;;
55692;SDS011;41590;53.366;5.212;2022-07-22T18:47:14;4.00;;;0.85;;
55692;SDS011;41590;53.366;5.212;2022-07-22T18:49:41;4.35;;;0.70;;
55692;SDS011;41590;53.366;5.212;2022-07-22T18:52:07;2.65;;;0.82;;
55692;SDS011;41590;53.366;5.212;2022-07-22T18:54:39;3.53;;;0.75;;
55692;SDS011;41590;53.366;5.212;2022-07-22T18:57:05;7.70;;;1.25;;
55692;SDS011;41590;53.366;5.212;2022-07-22T19:02:04;5.07;;;0.80;;
55692;SDS011;41590;53.366;5.212;2022-07-22T19:07:14;4.10;;;1.30;;
55692;SDS011;41590;53.366;5.212;2022-07-22T19:09:41;3.38;;;0.95;;
55692;SDS011;41590;53.366;5.212;2022-07-22T19:17:22;7.03;;;1.05;;
55692;SDS011;41590;53.366;5.212;2022-07-22T19:19:49;4.65;;;1.25;;
55692;SDS011;41590;53.366;5.212;2022-07-22T19:31:02;4.78;;;0.98;;
55692;SDS011;41590;53.366;5.212;2022-07-22T19:33:33;3.95;;;1.05;;
55692;SDS011;41590;53.366;5.212;2022-07-22T19:35:59;9.88;;;1.60;;
55692;SDS011;41590;53.366;5.212;2022-07-22T19:38:37;5.20;;;1.08;;
55692;SDS011;41590;53.366;5.212;2022-07-22T19:41:05;7.10;;;1.13;;
55692;SDS011;41590;53.366;5.212;2022-07-22T19:43:36;3.58;;;1.00;;